EW3345 Weather Reports


Display with metric or nautical units.
time (UTC)temp
F
wind
direction
speed
MPH
gust
MPH
rain 1hr
in
rain 24hr
in
rain mn
in
humidity
%
barometer
mb
20180921154416 73 154 4.0 7.0 0.00 0.00 0.00 66 1007.7
20180921153416 74 138 1.0 5.0 0.00 0.00 0.00 66 1007.9
20180921152417 74 144 3.0 6.0 0.00 0.00 0.00 64 1008.0
20180921151416 75 148 4.0 8.0 0.00 0.00 0.00 63 1008.0
20180921150416 75 157 1.0 4.0 0.00 0.00 0.00 63 1008.1
20180921145416 75 146 5.0 9.0 0.00 0.00 0.00 62 1008.3
20180921144416 75 158 2.0 8.0 0.00 0.00 0.00 62 1008.4
20180921143416 76 149 4.0 9.0 0.00 0.00 0.00 62 1008.6
20180921142416 76 159 2.0 6.0 0.00 0.00 0.00 61 1008.7
20180921141416 76 173 2.0 7.0 0.00 0.00 0.00 61 1008.8
20180921140416 76 153 5.0 8.0 0.00 0.00 0.00 59 1008.9
20180921135417 76 130 3.0 12.0 0.00 0.00 0.00 60 1009.0
20180921134416 76 149 5.0 9.0 0.00 0.00 0.00 60 1009.1
20180921133417 76 199 2.0 7.0 0.00 0.00 0.00 58 1009.1
20180921132416 76 151 4.0 9.0 0.00 0.00 0.00 59 1009.3
20180921131417 76 152 6.0 12.0 0.00 0.00 0.00 59 1009.4
20180921130417 76 157 4.0 6.0 0.00 0.00 0.00 59 1009.5
20180921125417 76 153 5.0 10.0 0.00 0.00 0.00 58 1009.6
20180921124416 76 158 5.0 11.0 0.00 0.00 0.00 59 1009.8
20180921123416 75 151 3.0 7.0 0.00 0.00 0.00 60 1010.0
20180921122417 75 154 4.0 8.0 0.00 0.00 0.00 60 1010.2
20180921121416 75 159 3.0 10.0 0.00 0.00 0.00 61 1010.3
20180921120416 75 116 3.0 8.0 0.00 0.00 0.00 60 1010.5
20180921115416 75 164 3.0 10.0 0.00 0.00 0.00 61 1010.7
20180921114416 75 154 5.0 11.0 0.00 0.00 0.00 61 1010.8
20180921113417 75 168 3.0 6.0 0.00 0.00 0.00 61 1010.8
20180921112416 74 174 4.0 10.0 0.00 0.00 0.00 60 1011.0
20180921111416 74 192 3.0 7.0 0.00 0.00 0.00 62 1011.1
20180921110416 74 230 6.0 9.0 0.00 0.00 0.00 62 1011.3
20180921105416 74 195 4.0 10.0 0.00 0.00 0.00 61 1011.5
20180921104416 73 212 3.0 7.0 0.00 0.00 0.00 64 1011.5
20180921103417 73 189 3.0 11.0 0.00 0.00 0.00 65 1011.7
20180921102417 72 219 4.0 9.0 0.00 0.00 0.00 66 1011.7
20180921101417 72 231 2.0 5.0 0.00 0.00 0.00 69 1011.8
20180921100416 71 211 3.0 6.0 0.00 0.00 0.00 70 1012.0
20180921095416 71 251 6.0 10.0 0.00 0.00 0.00 69 1012.0
20180921094416 70 240 3.0 5.0 0.00 0.00 0.00 72 1012.1
20180921093416 69 175 2.0 5.0 0.00 0.00 0.00 75 1012.1
20180921092420 69 233 4.0 6.0 0.00 0.00 0.00 75 1012.2
20180921091423 69 223 2.0 5.0 0.00 0.00 0.00 75 1012.3
20180921090416 68 241 3.0 5.0 0.00 0.00 0.00 77 1012.5
20180921085416 68 204 3.0 6.0 0.00 0.00 0.00 77 1012.5
20180921084417 67 223 5.0 10.0 0.00 0.00 0.00 78 1012.5
20180921083418 67 244 7.0 10.0 0.00 0.00 0.00 79 1012.6
20180921082417 66 257 4.0 8.0 0.00 0.00 0.00 79 1012.6
20180921081417 66 246 5.0 8.0 0.00 0.00 0.00 79 1012.7
20180921080417 66 240 3.0 6.0 0.00 0.00 0.00 81 1012.7
20180921075416 66 212 4.0 8.0 0.00 0.00 0.00 80 1012.7
20180921074416 65 212 4.0 7.0 0.00 0.00 0.00 83 1012.6
20180921073417 64 222 7.0 10.0 0.00 0.00 0.00 82 1012.6
20180921072416 64 233 5.0 10.0 0.00 0.00 0.00 83 1012.6
20180921071417 64 236 3.0 7.0 0.00 0.00 0.00 85 1012.7
20180921070417 63 241 5.0 9.0 0.00 0.00 0.00 86 1012.7
20180921065417 62 235 4.0 7.0 0.00 0.00 0.00 87 1012.6
20180921064416 62 231 3.0 6.0 0.00 0.00 0.00 87 1012.5
20180921063416 62 226 2.0 4.0 0.00 0.00 0.00 88 1012.5
20180921062416 62 175 2.0 7.0 0.00 0.00 0.00 89 1012.4
20180921061417 61 240 3.0 7.0 0.00 0.00 0.00 89 1012.6
20180921060416 61 236 3.0 7.0 0.00 0.00 0.00 90 1012.6
20180921055416 60 205 3.0 7.0 0.00 0.00 0.00 90 1012.6
20180921054416 60 229 3.0 7.0 0.00 0.00 0.00 90 1012.6
20180921053416 60 193 2.0 3.0 0.00 0.00 0.00 90 1012.5
20180921052417 60 205 0.0 3.0 0.00 0.00 0.00 90 1012.6
20180921051416 60 228 1.0 3.0 0.00 0.00 0.00 90 1012.6
20180921050416 60 225 1.0 3.0 0.00 0.00 0.00 91 1012.6
20180921045417 60 235 2.0 5.0 0.00 0.00 0.00 91 1012.7
20180921044416 60 233 2.0 4.0 0.00 0.00 0.00 91 1012.6
20180921043417 60 248 2.0 4.0 0.00 0.00 0.00 91 1012.7
20180921042416 60 232 4.0 5.0 0.00 0.00 0.00 90 1012.7
20180921041416 60 249 3.0 5.0 0.00 0.00 0.00 90 1012.6
20180921040416 60 225 4.0 8.0 0.00 0.00 0.00 90 1012.5
20180921035416 60 216 2.0 3.0 0.00 0.00 0.00 90 1012.5
20180921034416 60 246 2.0 4.0 0.00 0.00 0.00 90 1012.4
20180921033416 60 210 3.0 5.0 0.00 0.00 0.00 90 1012.4
20180921032416 60 239 1.0 3.0 0.00 0.00 0.00 90 1012.3
20180921031416 60 243 1.0 5.0 0.00 0.00 0.00 90 1012.3
20180921030416 60 230 2.0 5.0 0.00 0.00 0.00 90 1012.4
20180921025416 60 213 2.0 5.0 0.00 0.00 0.00 90 1012.4
20180921024417 59 246 2.0 6.0 0.00 0.00 0.00 90 1012.4
20180921023416 59 243 5.0 8.0 0.00 0.00 0.00 90 1012.5
20180921022416 59 240 2.0 5.0 0.00 0.00 0.00 90 1012.4
20180921021416 59 234 4.0 7.0 0.00 0.00 0.00 90 1012.4
20180921020416 59 228 2.0 4.0 0.00 0.00 0.00 90 1012.3
20180921015416 59 221 2.0 4.0 0.00 0.00 0.00 90 1012.2
20180921014417 59 236 4.0 6.0 0.00 0.00 0.00 90 1012.3
20180921013416 59 235 3.0 5.0 0.00 0.00 0.00 90 1012.2
20180921012416 59 241 2.0 4.0 0.00 0.00 0.00 90 1012.4
20180921011416 59 249 2.0 5.0 0.00 0.00 0.00 90 1012.4
20180921010417 59 236 2.0 5.0 0.00 0.00 0.00 90 1012.4
20180921005417 58 249 2.0 5.0 0.00 0.00 0.00 89 1012.2
20180921004417 58 260 2.0 4.0 0.00 0.00 0.00 89 1012.2
20180921003416 58 232 3.0 5.0 0.00 0.00 0.00 89 1012.2
20180921002416 59 238 2.0 5.0 0.00 0.00 0.00 88 1012.0
20180921001416 59 256 3.0 6.0 0.00 0.00 0.00 88 1011.9
20180921000416 59 235 3.0 5.0 0.00 0.00 0.00 88 1011.8
20180920235417 59 249 3.0 4.0 0.00 0.00 0.00 88 1011.8
20180920234416 59 253 3.0 7.0 0.00 0.00 0.00 87 1011.6
20180920233417 60 238 4.0 6.0 0.00 0.00 0.00 87 1011.6
20180920232416 60 239 5.0 7.0 0.00 0.00 0.00 87 1011.6
20180920231417 60 233 4.0 8.0 0.00 0.00 0.00 87 1011.6
20180920230416 60 232 4.0 8.0 0.00 0.00 0.00 86 1011.6
20180920225416 60 240 5.0 8.0 0.00 0.00 0.00 86 1011.8
20180920224417 60 255 4.0 7.0 0.00 0.00 0.00 86 1011.9
20180920223417 60 263 4.0 7.0 0.00 0.00 0.00 86 1011.9
20180920222417 60 253 4.0 8.0 0.00 0.00 0.00 86 1011.9
20180920221417 60 232 5.0 8.0 0.00 0.00 0.00 86 1011.7
20180920220417 61 246 4.0 9.0 0.00 0.00 0.00 86 1011.8
20180920215416 61 227 3.0 6.0 0.00 0.00 0.00 85 1011.7
20180920214416 61 234 5.0 7.0 0.00 0.00 0.00 85 1011.8
20180920213416 61 256 3.0 5.0 0.00 0.00 0.00 85 1011.6
20180920212417 61 234 4.0 8.0 0.00 0.00 0.00 85 1011.7
20180920211417 61 262 4.0 6.0 0.00 0.00 0.00 85 1011.6
20180920210417 61 229 5.0 7.0 0.00 0.00 0.00 85 1011.6
20180920205416 61 228 4.0 6.0 0.00 0.00 0.00 86 1011.5
20180920204416 61 233 2.0 7.0 0.00 0.00 0.00 86 1011.4
20180920203416 61 228 3.0 5.0 0.00 0.00 0.00 86 1011.4
20180920202417 61 224 3.0 5.0 0.00 0.00 0.00 87 1011.3
20180920201416 62 222 2.0 4.0 0.00 0.00 0.00 87 1011.4
20180920200416 62 204 2.0 4.0 0.00 0.00 0.00 87 1011.4
20180920195416 62 215 0.0 4.0 0.00 0.00 0.00 86 1011.6
20180920194417 62 231 2.0 4.0 0.00 0.00 0.00 86 1011.5
20180920193416 62 247 2.0 4.0 0.00 0.00 0.00 86 1011.7
20180920192417 62 231 1.0 3.0 0.00 0.00 0.00 85 1011.6
20180920191416 63 232 1.0 3.0 0.00 0.00 0.00 85 1011.7
20180920190416 63 232 2.0 4.0 0.00 0.00 0.00 84 1011.8
20180920185416 63 205 2.0 3.0 0.00 0.00 0.00 83 1011.8
20180920184416 64 205 1.0 3.0 0.00 0.00 0.00 83 1011.6
20180920183416 64 236 2.0 4.0 0.00 0.00 0.00 82 1011.6
20180920182416 64 227 3.0 5.0 0.00 0.00 0.00 82 1011.7
20180920181416 64 235 3.0 4.0 0.00 0.00 0.00 82 1011.8
20180920180417 65 240 2.0 4.0 0.00 0.00 0.00 81 1011.8
20180920175416 65 229 3.0 5.0 0.00 0.00 0.00 81 1011.8
20180920174418 65 214 1.0 3.0 0.00 0.00 0.00 81 1011.8
20180920173416 65 211 0.0 2.0 0.00 0.00 0.00 80 1012.0
20180920172417 66 211 1.0 3.0 0.00 0.00 0.00 79 1011.9
20180920171417 66 234 2.0 4.0 0.00 0.00 0.00 78 1011.9
20180920170416 66 248 2.0 4.0 0.00 0.00 0.00 77 1011.9
20180920165416 67 235 3.0 5.0 0.00 0.00 0.00 77 1011.9
20180920164416 67 254 2.0 5.0 0.00 0.00 0.00 76 1011.9
20180920163417 67 271 3.0 5.0 0.00 0.00 0.00 75 1012.0
20180920162416 68 239 1.0 3.0 0.00 0.00 0.00 74 1011.9
20180920161416 68 254 2.0 4.0 0.00 0.00 0.00 73 1011.9
20180920160416 69 233 4.0 7.0 0.00 0.00 0.00 72 1011.8
20180920155416 69 254 2.0 4.0 0.00 0.00 0.00 71 1011.8